Lady Lauren — WDE7767 — position and weather

sailwx.info

Track history (hours):
 
Tides and Currents Weather Stations Pressure Air Temp Water Temp Dewpoint Dewpoint Depression Visibility Wind Speed Wind Dir Waves Ship Positions

Lady Lauren

Owner: Louisiana Marine Towing LLC, Lafayette, LA. More information available from US FCC via Universal Licensing System and Coast Guard Vessel Documentation Center.

Last reported at 2016-Jun-27 04:28 UTC. Time now 2016-Jun-27 05:52 UTC.
Position N 29°32' W 090°51'.

Length 22 m; draft 2.1 m.

Type: Towing. MMSI: 367397380.

Date/timePositionNaut miles runAvg speedWind from/ knotsBaromVisibWave heightAir tempDewpointWater temp
2016-Jun-27 04:28N 29°32' W 090°51'5 5.5
2016-Jun-27 03:33N 29°33' W 090°46'2 2.1
2016-Jun-27 02:33N 29°34' W 090°44'0 0.2
2016-Jun-27 01:33N 29°34' W 090°43'3 2.5
2016-Jun-27 00:33N 29°36' W 090°43'1 0.6
2016-Jun-26 23:33N 29°37' W 090°42'2 1.8
2016-Jun-26 22:33N 29°36' W 090°40'3 2.8
2016-Jun-26 21:33N 29°35' W 090°37'3 2.6
2016-Jun-26 20:33N 29°34' W 090°34'3 2.7
2016-Jun-26 19:30N 29°34' W 090°31'23 2.5
2016-Jun-26 10:21N 29°45' W 090°08'2 2.1
2016-Jun-26 09:33N 29°46' W 090°07'3 1.7
2016-Jun-26 07:32N 29°49' W 090°04'2 2.2
2016-Jun-26 06:33N 29°50' W 090°03'0 0.2
2016-Jun-26 04:33N 29°50' W 090°03'2 2.3
2016-Jun-26 03:33N 29°51' W 090°01'3 3.0
2016-Jun-26 02:33N 29°54' W 089°60'2 1.5
2016-Jun-26 01:33N 29°55' W 089°58'0 0.3
2016-Jun-26 00:33N 29°55' W 089°58'0 0.0
2016-Jun-25 23:33N 29°55' W 089°58'4 4.0
2016-Jun-25 22:33N 29°57' W 090°02'4 4.4
2016-Jun-25 21:33N 29°55' W 090°06'4 4.0
2016-Jun-25 20:33N 29°57' W 090°09'2 2.2
2016-Jun-25 19:33N 29°56' W 090°11'0 0.1
2016-Jun-25 16:16N 29°56' W 090°11'1 0.8
2016-Jun-25 15:32N 29°56' W 090°10'3 2.6
2016-Jun-25 14:32N 29°55' W 090°08'4 4.0
2016-Jun-25 13:33N 29°56' W 090°04'3 2.7
2016-Jun-25 12:33N 29°58' W 090°02'0 0.5
2016-Jun-25 11:33N 29°58' W 090°01'1 1.4
2016-Jun-25 10:33N 29°60' W 090°01'0 0.0
2016-Jun-25 09:33N 29°60' W 090°01'0 0.0
2016-Jun-25 08:33N 29°60' W 090°01'0 0.0
2016-Jun-25 07:33N 29°60' W 090°01'0 0.0
2016-Jun-25 06:33N 29°60' W 090°01'0 0.0
2016-Jun-25 05:33N 29°60' W 090°01'0 0.0
2016-Jun-25 04:33N 29°60' W 090°01'0 0.0
2016-Jun-25 03:33N 29°60' W 090°01'0 0.0
2016-Jun-25 02:33N 29°60' W 090°01'0 0.0
2016-Jun-25 01:33N 29°60' W 090°01'0 0.0
2016-Jun-25 00:33N 29°60' W 090°01'0 0.0
2016-Jun-24 23:33N 29°60' W 090°01'0 0.0
2016-Jun-24 22:33N 29°60' W 090°01'0 0.0
2016-Jun-24 21:33N 29°60' W 090°01'0 0.0
2016-Jun-24 20:33N 29°60' W 090°01'0 0.0
2016-Jun-24 19:33N 29°60' W 090°01'0 0.0
2016-Jun-24 18:33N 29°60' W 090°01'0 0.0
2016-Jun-24 17:33N 29°60' W 090°01'0 0.0
2016-Jun-24 16:33N 29°60' W 090°01'0 0.0
2016-Jun-24 15:33N 29°60' W 090°01'0 0.0
2016-Jun-24 14:33N 29°60' W 090°01'0 0.0
2016-Jun-24 13:33N 29°60' W 090°01'4 4.0
2016-Jun-24 12:33N 30°00' W 089°56'  
2016-Jun-21 11:09N 30°00' W 089°56'9 0.6
2016-Jun-20 20:15N 29°55' W 090°04'2 3.2
2016-Jun-20 19:33N 29°57' W 090°03'2 1.7
2016-Jun-20 18:33N 29°58' W 090°01'5 4.9
2016-Jun-20 17:33N 30°00' W 089°56'  
Track history (hours):
 
Tides and Currents Weather Stations Pressure Air Temp Water Temp Dewpoint Dewpoint Depression Visibility Wind Speed Wind Dir Waves Ship Positions

Lady Lauren

Owner: Louisiana Marine Towing LLC, Lafayette, LA. More information available from US FCC via Universal Licensing System and Coast Guard Vessel Documentation Center.

Last reported at 2016-Jun-27 04:28 UTC. Time now 2016-Jun-27 05:52 UTC.
Position N 29°32' W 090°51'.

Length 22 m; draft 2.1 m.

Type: Towing. MMSI: 367397380.

Date/timePositionNaut miles runAvg speedWind from/ knotsBaromVisibWave heightAir tempDewpointWater temp
2016-Jun-27 04:28N 29°32' W 090°51'5 5.5
2016-Jun-27 03:33N 29°33' W 090°46'2 2.1
2016-Jun-27 02:33N 29°34' W 090°44'0 0.2
2016-Jun-27 01:33N 29°34' W 090°43'3 2.5
2016-Jun-27 00:33N 29°36' W 090°43'1 0.6
2016-Jun-26 23:33N 29°37' W 090°42'2 1.8
2016-Jun-26 22:33N 29°36' W 090°40'3 2.8
2016-Jun-26 21:33N 29°35' W 090°37'3 2.6
2016-Jun-26 20:33N 29°34' W 090°34'3 2.7
2016-Jun-26 19:30N 29°34' W 090°31'23 2.5
2016-Jun-26 10:21N 29°45' W 090°08'2 2.1
2016-Jun-26 09:33N 29°46' W 090°07'3 1.7
2016-Jun-26 07:32N 29°49' W 090°04'2 2.2
2016-Jun-26 06:33N 29°50' W 090°03'0 0.2
2016-Jun-26 04:33N 29°50' W 090°03'2 2.3
2016-Jun-26 03:33N 29°51' W 090°01'3 3.0
2016-Jun-26 02:33N 29°54' W 089°60'2 1.5
2016-Jun-26 01:33N 29°55' W 089°58'0 0.3
2016-Jun-26 00:33N 29°55' W 089°58'0 0.0
2016-Jun-25 23:33N 29°55' W 089°58'4 4.0
2016-Jun-25 22:33N 29°57' W 090°02'4 4.4
2016-Jun-25 21:33N 29°55' W 090°06'4 4.0
2016-Jun-25 20:33N 29°57' W 090°09'2 2.2
2016-Jun-25 19:33N 29°56' W 090°11'0 0.1
2016-Jun-25 16:16N 29°56' W 090°11'1 0.8
2016-Jun-25 15:32N 29°56' W 090°10'3 2.6
2016-Jun-25 14:32N 29°55' W 090°08'4 4.0
2016-Jun-25 13:33N 29°56' W 090°04'3 2.7
2016-Jun-25 12:33N 29°58' W 090°02'0 0.5
2016-Jun-25 11:33N 29°58' W 090°01'1 1.4
2016-Jun-25 10:33N 29°60' W 090°01'0 0.0
2016-Jun-25 09:33N 29°60' W 090°01'0 0.0
2016-Jun-25 08:33N 29°60' W 090°01'0 0.0
2016-Jun-25 07:33N 29°60' W 090°01'0 0.0
2016-Jun-25 06:33N 29°60' W 090°01'0 0.0
2016-Jun-25 05:33N 29°60' W 090°01'0 0.0
2016-Jun-25 04:33N 29°60' W 090°01'0 0.0
2016-Jun-25 03:33N 29°60' W 090°01'0 0.0
2016-Jun-25 02:33N 29°60' W 090°01'0 0.0
2016-Jun-25 01:33N 29°60' W 090°01'0 0.0
2016-Jun-25 00:33N 29°60' W 090°01'0 0.0
2016-Jun-24 23:33N 29°60' W 090°01'0 0.0
2016-Jun-24 22:33N 29°60' W 090°01'0 0.0
2016-Jun-24 21:33N 29°60' W 090°01'0 0.0
2016-Jun-24 20:33N 29°60' W 090°01'0 0.0
2016-Jun-24 19:33N 29°60' W 090°01'0 0.0
2016-Jun-24 18:33N 29°60' W 090°01'0 0.0
2016-Jun-24 17:33N 29°60' W 090°01'0 0.0
2016-Jun-24 16:33N 29°60' W 090°01'0 0.0
2016-Jun-24 15:33N 29°60' W 090°01'0 0.0
2016-Jun-24 14:33N 29°60' W 090°01'0 0.0
2016-Jun-24 13:33N 29°60' W 090°01'4 4.0
2016-Jun-24 12:33N 30°00' W 089°56'  
2016-Jun-21 11:09N 30°00' W 089°56'9 0.6
2016-Jun-20 20:15N 29°55' W 090°04'2 3.2
2016-Jun-20 19:33N 29°57' W 090°03'2 1.7
2016-Jun-20 18:33N 29°58' W 090°01'5 4.9
2016-Jun-20 17:33N 30°00' W 089°56'  

Dump ship's entire track history